Time;durP1;ratioP1;P1;durP2;ratioP2;P2;SDS_P1;SDS_P2;PMS_P1;PMS_P2;Temp;Humidity;BMP_temperature;BMP_pressure;BME280_temperature;BME280_humidity;BME280_pressure;Samples;Min_cycle;Max_cycle;Signal;HPM_P1;HPM_P2
2022/08/03 04:42:46;;;;;;;;;;;;;;;23.39;100.00;98474.56;5354411;23;19934;-66
2022/08/03 04:45:14;;;;;;;;;;;;;;;23.74;100.00;98472.06;4939089;29;19935;-65
2022/08/03 04:47:41;;;;;;;;;;;;;;;24.13;100.00;98478.72;4940875;29;19927;-66
2022/08/03 04:50:10;;;;;;;;;;;;;;;24.51;100.00;98473.03;4956503;29;19930;-66
2022/08/03 04:52:40;;;;;;;;;;;;;;;24.67;100.00;98478.31;4947062;29;19934;-66
2022/08/03 04:55:07;;;;;;;;;;;;;;;25.19;100.00;98482.47;4958161;29;19933;-66
2022/08/03 04:57:34;;;;;;;;;;;;;;;25.75;99.93;98486.38;4957834;29;20234;-66
2022/08/03 05:00:02;;;;;;;;;;;;;;;26.18;98.12;98491.25;4945698;29;19934;-63
2022/08/03 05:02:31;;;;;;;;;;;;;;;26.63;92.68;98490.56;4957550;29;19927;-62
2022/08/03 05:04:58;;;;;;;;;;;;;;;27.10;88.13;98491.41;4958437;29;19934;-62
2022/08/03 05:07:26;;;;;;;;;;;;;;;27.47;85.85;98495.22;4957620;29;19930;-62
2022/08/03 05:09:53;;;;;;;;;;;;;;;27.92;82.08;98502.94;4958358;29;19937;-62
2022/08/03 05:12:20;;;;;;;;;;;;;;;28.49;78.66;98510.66;4957934;29;19933;-63
2022/08/03 05:14:48;;;;;;;;;;;;;;;28.62;76.43;98511.03;4957361;29;19938;-63
2022/08/03 05:17:15;;;;;;;;;;;;;;;29.35;72.65;98504.25;4943816;29;19927;-63
2022/08/03 05:19:42;;;;;;;;;;;;;;;29.80;69.75;98508.03;4946180;29;19934;-63
2022/08/03 05:22:09;;;;;;;;;;;;;;;29.90;68.74;98515.91;4925066;29;19931;-63
2022/08/03 05:24:37;;;;;;;;;;;;;;;30.48;66.57;98516.91;4957631;29;19942;-63
2022/08/03 05:27:04;;;;;;;;;;;;;;;30.94;63.99;98522.03;4957214;29;19930;-63
2022/08/03 05:29:31;;;;;;;;;;;;;;;31.58;59.94;98525.66;4957336;29;20227;-63
2022/08/03 05:32:00;;;;;;;;;;;;;;;31.54;57.60;98520.19;4957198;29;19930;-63
2022/08/03 05:34:30;;;;;;;;;;;;;;;31.98;57.20;98530.66;4957209;29;20222;-63
2022/08/03 05:36:58;;;;;;;;;;;;;;;32.56;55.24;98539.09;4957069;29;19930;-63
2022/08/03 05:39:26;;;;;;;;;;;;;;;32.69;53.34;98540.00;4956979;29;19933;-63
2022/08/03 05:41:54;;;;;;;;;;;;;;;32.44;54.21;98541.28;4956503;29;19937;-63
2022/08/03 05:44:25;;;;;;;;;;;;;;;32.75;52.42;98537.81;4957677;29;19930;-63
2022/08/03 05:46:55;;;;;;;;;;;;;;;32.73;52.24;98536.78;4954512;29;20346;-63
2022/08/03 05:49:22;;;;;;;;;;;;;;;32.45;53.03;98539.97;4932489;29;19926;-63
2022/08/03 05:51:51;;;;;;;;;;;;;;;31.65;56.09;98531.66;4934809;29;20539;-63
2022/08/03 05:54:19;;;;;;;;;;;;;;;31.10;58.46;98532.75;4934214;29;19931;-63
2022/08/03 05:56:49;;;;;;;;;;;;;;;30.43;61.85;98529.25;4938167;29;19937;-63
2022/08/03 05:59:16;;;;;;;;;;;;;;;30.18;62.94;98530.28;4938011;29;19931;-63
2022/08/03 06:02:02;;;;;;;;;;;;;;;29.69;65.85;98528.94;4937649;29;20574;-63
2022/08/03 06:04:30;;;;;;;;;;;;;;;29.25;68.53;98523.88;4947165;29;20215;-63
2022/08/03 06:06:57;;;;;;;;;;;;;;;29.08;70.15;98527.97;4950795;29;20255;-63
2022/08/03 06:09:24;;;;;;;;;;;;;;;28.90;69.71;98532.13;4956601;29;19930;-63
2022/08/03 06:11:52;;;;;;;;;;;;;;;28.67;71.50;98530.41;4955357;29;19926;-63
2022/08/03 06:14:20;;;;;;;;;;;;;;;28.64;71.70;98540.88;4943358;29;19934;-63
2022/08/03 06:16:50;;;;;;;;;;;;;;;28.61;72.04;98529.63;4934012;29;19927;-62
2022/08/03 06:19:19;;;;;;;;;;;;;;;28.57;73.26;98534.78;4933609;29;19931;-62
2022/08/03 06:21:49;;;;;;;;;;;;;;;28.71;73.78;98536.72;4942723;29;19946;-62
2022/08/03 06:24:18;;;;;;;;;;;;;;;28.83;76.45;98534.69;4955804;29;20322;-62
2022/08/03 06:26:48;;;;;;;;;;;;;;;28.89;79.03;98532.63;4944639;29;19931;-62
2022/08/03 06:29:17;;;;;;;;;;;;;;;28.99;72.86;98537.63;4955209;29;19933;-62
2022/08/03 06:31:46;;;;;;;;;;;;;;;29.07;72.24;98544.50;4956505;29;19930;-62
2022/08/03 06:34:15;;;;;;;;;;;;;;;29.06;74.53;98537.13;4955576;29;19938;-62
2022/08/03 06:36:47;;;;;;;;;;;;;;;28.98;72.98;98541.81;4947295;29;20216;-62
2022/08/03 06:39:17;;;;;;;;;;;;;;;29.03;70.61;98543.13;4944493;29;19934;-62
2022/08/03 06:41:45;;;;;;;;;;;;;;;28.84;72.34;98548.56;4956227;29;19934;-62
2022/08/03 06:44:14;;;;;;;;;;;;;;;28.60;74.09;98551.84;4943131;29;19961;-62
2022/08/03 06:46:42;;;;;;;;;;;;;;;28.51;76.27;98562.75;4943295;29;19938;-62
2022/08/03 06:49:12;;;;;;;;;;;;;;;28.39;77.93;98552.47;4956510;29;19926;-62
2022/08/03 06:51:41;;;;;;;;;;;;;;;28.12;81.24;98553.84;4935992;29;19927;-62
2022/08/03 06:54:11;;;;;;;;;;;;;;;28.16;80.75;98559.34;4943957;29;19926;-62
2022/08/03 06:56:38;;;;;;;;;;;;;;;28.25;79.98;98559.13;4939885;29;19999;-63
2022/08/03 06:59:05;;;;;;;;;;;;;;;28.21;83.70;98558.59;4940747;29;19961;-63
2022/08/03 07:01:33;;;;;;;;;;;;;;;28.23;82.43;98553.13;4934447;29;19931;-62
2022/08/03 07:04:00;;;;;;;;;;;;;;;28.22;85.55;98568.81;4942316;29;19931;-61
2022/08/03 07:06:27;;;;;;;;;;;;;;;28.18;86.27;98565.38;4938195;29;20227;-61
2022/08/03 07:08:55;;;;;;;;;;;;;;;28.25;84.50;98573.53;4945308;29;19938;-61
2022/08/03 07:11:25;;;;;;;;;;;;;;;28.28;88.24;98564.66;4938343;29;20007;-61
2022/08/03 07:13:52;;;;;;;;;;;;;;;28.22;88.22;98569.56;4940928;29;19927;-63
2022/08/03 07:16:20;;;;;;;;;;;;;;;28.07;88.45;98568.97;4928143;29;19927;-63
2022/08/03 07:18:47;;;;;;;;;;;;;;;28.05;89.53;98571.53;4934316;29;20219;-63
2022/08/03 07:21:15;;;;;;;;;;;;;;;27.92;87.93;98568.25;4940623;29;19930;-63
2022/08/03 07:23:43;;;;;;;;;;;;;;;28.08;89.50;98563.97;4947996;28;19938;-63
2022/08/03 07:26:10;;;;;;;;;;;;;;;28.14;90.17;98568.50;4932836;29;19930;-63
2022/08/03 07:28:37;;;;;;;;;;;;;;;28.14;91.26;98568.50;4952519;29;19927;-63
2022/08/03 07:31:05;;;;;;;;;;;;;;;27.98;82.37;98571.97;4959403;29;19938;-63
2022/08/03 07:33:32;;;;;;;;;;;;;;;28.15;86.20;98569.25;4958847;29;20224;-63
2022/08/03 07:35:59;;;;;;;;;;;;;;;28.21;84.06;98568.03;4955834;29;19938;-63
2022/08/03 07:38:27;;;;;;;;;;;;;;;28.10;83.40;98565.03;4944094;29;19965;-63
2022/08/03 07:40:55;;;;;;;;;;;;;;;28.13;82.02;98566.09;4948007;29;19930;-62
2022/08/03 07:43:25;;;;;;;;;;;;;;;28.14;82.69;98573.44;4958127;29;19930;-63
2022/08/03 07:45:55;;;;;;;;;;;;;;;28.21;86.63;98572.97;4958184;29;20015;-63
2022/08/03 07:48:24;;;;;;;;;;;;;;;28.25;87.51;98565.69;4958311;29;19931;-63
2022/08/03 07:50:53;;;;;;;;;;;;;;;28.24;84.59;98572.75;4941131;29;19931;-63
2022/08/03 07:53:24;;;;;;;;;;;;;;;28.37;85.12;98575.19;4952047;29;19930;-63
2022/08/03 07:55:51;;;;;;;;;;;;;;;28.14;92.07;98573.44;4958668;29;20251;-63
2022/08/03 07:58:18;;;;;;;;;;;;;;;28.29;86.81;98572.00;4952411;29;20312;-63
2022/08/03 08:00:49;;;;;;;;;;;;;;;28.03;86.92;98574.13;4958437;29;20414;-63
2022/08/03 08:03:17;;;;;;;;;;;;;;;28.18;91.96;98574.78;4958472;29;19933;-63
2022/08/03 08:05:44;;;;;;;;;;;;;;;28.24;87.75;98569.09;4958571;29;19935;-63
2022/08/03 08:08:11;;;;;;;;;;;;;;;28.00;88.95;98569.38;4959148;29;19926;-63
2022/08/03 08:10:38;;;;;;;;;;;;;;;28.01;87.54;98565.22;4958309;29;19930;-63
2022/08/03 08:13:05;;;;;;;;;;;;;;;27.96;88.21;98575.34;4958484;29;19930;-63
2022/08/03 08:15:33;;;;;;;;;;;;;;;28.14;88.69;98577.13;4958156;29;19942;-63
2022/08/03 08:18:01;;;;;;;;;;;;;;;28.02;88.12;98574.66;4941142;29;19927;-63
2022/08/03 08:20:30;;;;;;;;;;;;;;;28.12;86.37;98570.28;4958341;29;19930;-63
2022/08/03 08:23:00;;;;;;;;;;;;;;;28.25;86.60;98574.31;4958319;29;20643;-63
2022/08/03 08:25:29;;;;;;;;;;;;;;;28.02;88.13;98566.81;4957903;29;19930;-63
2022/08/03 08:27:57;;;;;;;;;;;;;;;28.11;92.68;98565.84;4957983;29;19926;-63
2022/08/03 08:30:24;;;;;;;;;;;;;;;28.14;91.07;98564.81;4957934;29;19937;-63
2022/08/03 08:32:52;;;;;;;;;;;;;;;28.21;89.46;98568.03;4957602;29;19930;-63
2022/08/03 08:35:19;;;;;;;;;;;;;;;28.16;86.97;98570.84;4958422;28;20200;-63
2022/08/03 08:37:46;;;;;;;;;;;;;;;28.20;85.99;98580.00;4957803;29;19935;-63
2022/08/03 08:40:13;;;;;;;;;;;;;;;28.43;82.80;98573.94;4957976;29;19931;-63
2022/08/03 08:42:41;;;;;;;;;;;;;;;28.38;84.91;98582.53;4957673;29;19927;-63
2022/08/03 08:45:18;;;;;;;;;;;;;;;28.33;85.07;98568.88;4958309;29;19937;-63
2022/08/03 08:47:46;;;;;;;;;;;;;;;28.56;90.52;98574.25;4957762;29;19926;-63
2022/08/03 08:50:17;;;;;;;;;;;;;;;28.39;88.68;98578.34;4953670;29;20231;-63
2022/08/03 08:52:46;;;;;;;;;;;;;;;28.48;86.63;98569.50;4949874;29;20300;-63
2022/08/03 08:55:17;;;;;;;;;;;;;;;28.37;86.39;98570.22;4945088;29;20398;-63
2022/08/03 08:58:02;;;;;;;;;;;;;;;28.51;85.35;98575.00;4957379;29;20227;-63
2022/08/03 09:00:29;;;;;;;;;;;;;;;28.55;88.02;98580.53;4957319;29;19937;-63
2022/08/03 09:02:57;;;;;;;;;;;;;;;28.56;86.40;98574.25;4957550;29;19934;-63
2022/08/03 09:05:24;;;;;;;;;;;;;;;28.52;91.69;98564.31;4957302;29;19930;-63
2022/08/03 09:08:04;;;;;;;;;;;;;;;28.68;86.16;98565.75;4957184;29;19930;-63
2022/08/03 09:10:31;;;;;;;;;;;;;;;28.78;87.15;98570.00;4957452;29;19926;-63
2022/08/03 09:12:58;;;;;;;;;;;;;;;28.80;82.79;98570.25;4957903;29;19930;-64
2022/08/03 09:15:30;;;;;;;;;;;;;;;28.88;84.94;98554.84;4957069;29;19927;-63
2022/08/03 09:17:58;;;;;;;;;;;;;;;28.81;79.86;98572.63;4940761;29;19926;-63
2022/08/03 09:20:27;;;;;;;;;;;;;;;28.75;84.34;98565.25;4957107;29;19927;-63
2022/08/03 09:22:56;;;;;;;;;;;;;;;28.77;82.97;98572.06;4956721;29;19965;-63
2022/08/03 09:25:27;;;;;;;;;;;;;;;28.85;84.34;98558.78;4956874;29;19930;-63
2022/08/03 09:28:02;;;;;;;;;;;;;;;28.92;82.87;98558.28;4931943;29;19941;-63
2022/08/03 09:30:30;;;;;;;;;;;;;;;28.90;82.82;98554.34;4940159;29;19930;-63
2022/08/03 09:33:01;;;;;;;;;;;;;;;28.85;80.85;98550.16;4956689;29;19937;-63
2022/08/03 09:35:28;;;;;;;;;;;;;;;28.98;85.02;98549.66;4957129;29;19934;-63
2022/08/03 09:38:17;;;;;;;;;;;;;;;29.16;78.58;98555.78;4957034;29;20296;-63
2022/08/03 09:40:44;;;;;;;;;;;;;;;29.24;80.31;98548.25;4956327;29;19960;-63
2022/08/03 09:43:12;;;;;;;;;;;;;;;29.23;80.55;98552.41;4956695;29;19926;-63
2022/08/03 09:45:39;;;;;;;;;;;;;;;29.11;81.55;98552.88;4956794;29;19931;-63
2022/08/03 09:48:25;;;;;;;;;;;;;;;29.24;82.02;98551.13;4955874;28;19957;-63
2022/08/03 09:50:54;;;;;;;;;;;;;;;29.42;80.96;98549.09;4946971;29;20235;-63
2022/08/03 09:53:21;;;;;;;;;;;;;;;29.13;70.46;98548.16;4952832;29;19933;-63
2022/08/03 09:55:53;;;;;;;;;;;;;;;29.15;74.36;98550.50;4956557;29;19931;-63
2022/08/03 09:58:20;;;;;;;;;;;;;;;28.99;76.51;98539.72;4954318;29;19930;-63
2022/08/03 10:00:56;;;;;;;;;;;;;;;29.07;78.68;98547.38;4938444;29;19930;-63
2022/08/03 10:03:23;;;;;;;;;;;;;;;29.18;77.37;98541.63;4951290;29;20407;-63
2022/08/03 10:05:51;;;;;;;;;;;;;;;29.25;79.54;98540.38;4949384;29;19934;-63
2022/08/03 10:08:21;;;;;;;;;;;;;;;29.37;80.51;98544.84;4955795;29;20308;-63
2022/08/03 10:10:49;;;;;;;;;;;;;;;29.21;74.19;98537.75;4956083;29;19937;-63
2022/08/03 10:13:17;;;;;;;;;;;;;;;29.34;75.41;98542.25;4932560;29;19928;-63
2022/08/03 10:15:45;;;;;;;;;;;;;;;29.58;77.14;98542.56;4953816;29;19942;-63
2022/08/03 10:18:13;;;;;;;;;;;;;;;29.50;73.95;98530.75;4942781;29;19926;-63
2022/08/03 10:20:54;;;;;;;;;;;;;;;29.59;74.75;98530.50;4944932;29;19934;-63
2022/08/03 10:23:21;;;;;;;;;;;;;;;29.75;78.53;98531.84;4930289;29;19931;-63
2022/08/03 10:25:52;;;;;;;;;;;;;;;29.73;70.85;98537.34;4954113;29;19931;-63
2022/08/03 10:28:20;;;;;;;;;;;;;;;29.77;70.90;98529.25;4949595;29;19931;-63
2022/08/03 10:30:49;;;;;;;;;;;;;;;29.82;70.57;98532.13;4937306;29;19931;-63
2022/08/03 10:33:18;;;;;;;;;;;;;;;29.69;68.83;98534.72;4953305;29;19927;-63
2022/08/03 10:35:50;;;;;;;;;;;;;;;29.62;71.75;98520.03;4956220;29;19961;-63
2022/08/03 10:38:20;;;;;;;;;;;;;;;29.70;71.08;98530.53;4953622;29;20307;-63
2022/08/03 10:40:50;;;;;;;;;;;;;;;29.61;64.39;98525.03;4940034;29;20227;-63
2022/08/03 10:43:21;;;;;;;;;;;;;;;29.71;66.21;98523.44;4956558;29;19930;-63
2022/08/03 10:45:49;;;;;;;;;;;;;;;29.75;67.32;98517.41;4957034;29;19937;-63
2022/08/03 10:48:17;;;;;;;;;;;;;;;29.82;66.77;98519.81;4955067;29;19937;-63
2022/08/03 10:50:45;;;;;;;;;;;;;;;29.82;67.66;98525.56;4940897;29;19926;-63
2022/08/03 10:53:12;;;;;;;;;;;;;;;29.93;68.42;98514.06;4949815;29;20219;-63
2022/08/03 10:58:36;;;;;;;;;;;;;;;29.95;70.83;98511.44;4957971;28;19930;-63
2022/08/03 11:01:04;;;;;;;;;;;;;;;29.97;69.99;98503.03;4960754;29;20239;-63
2022/08/03 11:03:32;;;;;;;;;;;;;;;29.82;65.38;98511.16;4959860;29;19927;-63
2022/08/03 11:06:17;;;;;;;;;;;;;;;29.79;66.90;98500.66;4959726;29;19931;-62
2022/08/03 11:08:46;;;;;;;;;;;;;;;29.76;68.94;98504.59;4959540;29;19981;-61
2022/08/03 11:11:16;;;;;;;;;;;;;;;29.99;63.71;98497.53;4959470;29;19937;-61
2022/08/03 11:14:02;;;;;;;;;;;;;;;30.02;66.75;98507.22;4959530;29;19934;-61
2022/08/03 11:16:30;;;;;;;;;;;;;;;30.01;65.99;98494.91;4947065;29;19930;-61
2022/08/03 11:18:59;;;;;;;;;;;;;;;30.01;65.02;98497.00;4941726;29;19935;-61
2022/08/03 11:21:45;;;;;;;;;;;;;;;30.09;67.54;98500.94;4959367;29;19933;-61
2022/08/03 11:24:53;;;;;;;;;;;;;;;30.09;67.37;98501.72;4950138;29;19926;-61
2022/08/03 11:27:21;;;;;;;;;;;;;;;30.07;67.46;98504.34;4861756;29;19928;-61
2022/08/03 11:29:58;;;;;;;;;;;;;;;30.13;66.53;98502.22;4929795;29;19938;-61
2022/08/03 11:32:37;;;;;;;;;;;;;;;30.13;65.12;98496.47;4950111;29;19938;-61
2022/08/03 11:35:11;;;;;;;;;;;;;;;30.16;62.77;98506.97;4954968;29;20225;-61
2022/08/03 11:37:57;;;;;;;;;;;;;;;30.05;64.51;98504.09;4942251;29;19938;-64
2022/08/03 11:40:44;;;;;;;;;;;;;;;30.03;69.36;98495.16;4942438;29;19934;-61
2022/08/03 11:43:20;;;;;;;;;;;;;;;30.10;70.20;98488.88;4939865;29;19934;-61
2022/08/03 11:46:12;;;;;;;;;;;;;;;30.15;66.44;98490.19;4940804;29;19930;-63
2022/08/03 11:48:43;;;;;;;;;;;;;;;30.31;66.70;98481.50;4938576;29;19934;-61
2022/08/03 11:51:31;;;;;;;;;;;;;;;30.20;69.52;98487.28;4940383;29;19935;-61
2022/08/03 11:53:59;;;;;;;;;;;;;;;30.41;68.94;98479.94;4936235;29;20232;-61
2022/08/03 11:56:27;;;;;;;;;;;;;;;30.53;59.78;98477.78;4940883;29;19927;-61
2022/08/03 11:58:55;;;;;;;;;;;;;;;30.47;68.70;98477.00;4944399;29;19934;-61
2022/08/03 12:01:26;;;;;;;;;;;;;;;30.47;64.12;98477.00;4947797;29;19931;-61
2022/08/03 12:03:54;;;;;;;;;;;;;;;30.30;62.24;98468.38;4950999;29;19989;-61
2022/08/03 12:06:22;;;;;;;;;;;;;;;30.24;62.43;98472.59;4940740;29;19931;-61
2022/08/03 12:08:50;;;;;;;;;;;;;;;30.33;64.56;98469.41;4942998;29;19930;-61
2022/08/03 12:11:17;;;;;;;;;;;;;;;30.35;65.18;98470.50;4951384;28;20219;-61
2022/08/03 12:13:46;;;;;;;;;;;;;;;30.39;62.43;98467.34;4937837;29;19938;-61
2022/08/03 12:16:17;;;;;;;;;;;;;;;30.28;63.90;98470.22;4947596;29;19931;-61
2022/08/03 12:18:53;;;;;;;;;;;;;;;30.35;63.93;98473.38;4945629;29;19930;-61
2022/08/03 12:21:23;;;;;;;;;;;;;;;30.27;63.53;98462.88;4950667;29;19927;-61
2022/08/03 12:23:55;;;;;;;;;;;;;;;30.24;64.14;98461.84;4939845;29;19927;-61
2022/08/03 12:26:22;;;;;;;;;;;;;;;30.30;61.90;98465.47;4935855;29;20324;-61
2022/08/03 12:28:49;;;;;;;;;;;;;;;30.44;66.16;98464.44;4933251;29;19938;-61
2022/08/03 12:31:16;;;;;;;;;;;;;;;30.47;67.39;98456.81;4948241;29;20340;-62
2022/08/03 12:33:54;;;;;;;;;;;;;;;30.45;60.39;98459.44;4952836;29;19937;-62
2022/08/03 12:36:22;;;;;;;;;;;;;;;30.48;63.87;98459.19;4943217;29;19933;-62
2022/08/03 12:38:56;;;;;;;;;;;;;;;30.53;61.68;98458.38;4941495;29;20007;-62
2022/08/03 12:41:30;;;;;;;;;;;;;;;30.57;60.62;98454.44;4944248;29;19938;-61
2022/08/03 12:43:57;;;;;;;;;;;;;;;30.60;61.39;98450.47;4938757;29;19934;-61
2022/08/03 12:46:29;;;;;;;;;;;;;;;30.68;59.27;98448.59;4930588;29;19931;-61
2022/08/03 12:48:56;;;;;;;;;;;;;;;30.59;60.42;98449.72;4943409;29;19933;-61
2022/08/03 12:51:26;;;;;;;;;;;;;;;30.65;61.46;98453.34;4936898;29;19931;-61
2022/08/03 12:53:54;;;;;;;;;;;;;;;30.59;62.27;98449.72;4934861;29;19938;-61
2022/08/03 12:56:21;;;;;;;;;;;;;;;30.59;59.29;98448.91;4936406;29;19927;-61
2022/08/03 12:58:49;;;;;;;;;;;;;;;30.62;60.24;98453.63;4939273;29;19986;-61
2022/08/03 13:01:16;;;;;;;;;;;;;;;30.60;56.69;98442.59;4938612;29;19931;-61
2022/08/03 13:03:45;;;;;;;;;;;;;;;30.69;56.81;98448.06;4919799;29;19931;-61
2022/08/03 13:06:13;;;;;;;;;;;;;;;30.79;58.56;98440.69;4920117;29;20198;-61
2022/08/03 13:08:41;;;;;;;;;;;;;;;30.84;60.37;98441.97;4920229;29;19927;-62
2022/08/03 13:11:17;;;;;;;;;;;;;;;30.88;59.77;98445.38;4919620;29;19938;-62
2022/08/03 13:13:45;;;;;;;;;;;;;;;30.86;58.63;98433.56;4919768;29;19931;-62
2022/08/03 13:16:12;;;;;;;;;;;;;;;31.00;56.53;98441.94;4919815;29;20228;-61
2022/08/03 13:18:41;;;;;;;;;;;;;;;30.95;51.80;98433.28;4919371;29;20197;-61
2022/08/03 13:21:09;;;;;;;;;;;;;;;30.95;54.96;98436.19;4919998;29;19935;-61
2022/08/03 13:23:36;;;;;;;;;;;;;;;31.09;53.08;98437.94;4919398;29;20248;-61
2022/08/03 13:26:03;;;;;;;;;;;;;;;30.96;55.29;98426.19;4930352;29;19934;-61
2022/08/03 13:28:31;;;;;;;;;;;;;;;30.99;57.48;98430.88;4941016;29;19934;-61
2022/08/03 13:30:58;;;;;;;;;;;;;;;31.03;53.10;98428.53;4935775;29;19927;-61
2022/08/03 13:33:26;;;;;;;;;;;;;;;31.01;57.57;98426.16;4946973;29;19927;-61
2022/08/03 13:35:53;;;;;;;;;;;;;;;30.99;51.19;98430.88;4950860;29;19957;-61
2022/08/03 13:38:21;;;;;;;;;;;;;;;31.00;53.59;98427.50;4956881;29;19926;-62
2022/08/03 13:40:49;;;;;;;;;;;;;;;30.97;53.26;98422.78;4945421;29;19961;-62
2022/08/03 13:43:17;;;;;;;;;;;;;;;31.02;50.88;98424.06;4944181;29;19926;-62
2022/08/03 13:45:44;;;;;;;;;;;;;;;31.01;57.27;98417.47;4931480;29;19969;-63
2022/08/03 13:48:15;;;;;;;;;;;;;;;31.05;55.31;98420.91;4926343;29;19934;-62
2022/08/03 13:50:42;;;;;;;;;;;;;;;31.08;57.11;98416.91;4930339;29;19935;-64
2022/08/03 13:53:12;;;;;;;;;;;;;;;31.01;55.28;98413.81;4933288;29;20335;-64
2022/08/03 13:55:39;;;;;;;;;;;;;;;30.95;53.47;98410.19;4927742;29;19934;-63
2022/08/03 13:58:10;;;;;;;;;;;;;;;31.08;57.98;98410.38;4927494;29;19977;-65
2022/08/03 14:00:38;;;;;;;;;;;;;;;31.05;54.35;98411.44;4929419;29;19927;-63
2022/08/03 14:03:06;;;;;;;;;;;;;;;31.02;55.29;98409.59;4933094;29;19926;-62
2022/08/03 14:05:40;;;;;;;;;;;;;;;31.01;53.28;98405.94;4932429;29;19942;-62
2022/08/03 14:08:07;;;;;;;;;;;;;;;31.05;54.43;98397.00;4934049;29;19934;-62
2022/08/03 14:10:36;;;;;;;;;;;;;;;30.98;54.13;98401.22;4933446;29;19938;-61
2022/08/03 14:13:03;;;;;;;;;;;;;;;30.97;54.00;98398.88;4931339;29;19934;-62
2022/08/03 14:15:31;;;;;;;;;;;;;;;30.98;54.75;98383.13;4933774;29;19927;-61
2022/08/03 14:17:58;;;;;;;;;;;;;;;30.93;53.91;98395.50;4929429;29;19946;-62
2022/08/03 14:20:26;;;;;;;;;;;;;;;31.01;56.98;98384.91;4935330;29;19957;-62
2022/08/03 14:22:53;;;;;;;;;;;;;;;31.01;53.58;98387.81;4921245;29;19931;-62
2022/08/03 14:25:20;;;;;;;;;;;;;;;31.11;51.78;98395.63;4933658;29;20339;-61
2022/08/03 14:27:48;;;;;;;;;;;;;;;31.00;54.12;98381.28;4936980;29;19947;-61
2022/08/03 14:30:15;;;;;;;;;;;;;;;31.07;53.46;98388.56;4938093;29;19930;-61
2022/08/03 14:32:42;;;;;;;;;;;;;;;31.01;56.64;98382.03;4941552;29;19927;-61
2022/08/03 14:35:10;;;;;;;;;;;;;;;31.02;55.11;98375.75;4946958;29;19934;-62
2022/08/03 14:37:37;;;;;;;;;;;;;;;31.04;52.44;98386.75;4936769;29;19938;-61
2022/08/03 14:40:05;;;;;;;;;;;;;;;30.99;55.60;98373.13;4933430;29;19946;-61
2022/08/03 14:42:32;;;;;;;;;;;;;;;31.06;51.51;98373.34;4935537;29;19926;-61
2022/08/03 14:44:59;;;;;;;;;;;;;;;31.09;55.28;98362.81;4938066;29;19935;-62
2022/08/03 14:47:29;;;;;;;;;;;;;;;31.03;53.09;98374.41;4933713;29;20332;-61
2022/08/03 14:49:56;;;;;;;;;;;;;;;31.00;51.50;98363.94;4944474;29;19931;-61
2022/08/03 14:52:24;;;;;;;;;;;;;;;30.94;56.42;98365.28;4946002;29;19931;-61
2022/08/03 14:54:51;;;;;;;;;;;;;;;30.97;54.04;98359.22;4941504;29;19934;-61
2022/08/03 14:57:19;;;;;;;;;;;;;;;30.95;54.51;98358.19;4941004;29;19930;-61
2022/08/03 14:59:46;;;;;;;;;;;;;;;30.90;52.96;98353.25;4937552;29;19927;-61
2022/08/03 15:02:14;;;;;;;;;;;;;;;30.89;54.56;98348.75;4931965;29;19941;-61
2022/08/03 15:04:47;;;;;;;;;;;;;;;30.90;53.57;98348.25;4935219;29;19935;-62
2022/08/03 15:07:14;;;;;;;;;;;;;;;30.90;56.06;98347.47;4937651;29;20315;-62
2022/08/03 15:09:41;;;;;;;;;;;;;;;30.87;55.40;98354.28;4938188;29;20334;-61
2022/08/03 15:12:09;;;;;;;;;;;;;;;30.82;55.71;98340.66;4939254;29;19930;-61
2022/08/03 15:14:36;;;;;;;;;;;;;;;30.88;58.81;98344.31;4937326;29;20351;-61
2022/08/03 15:17:04;;;;;;;;;;;;;;;30.87;53.07;98346.41;4936257;29;19930;-60
2022/08/03 15:19:32;;;;;;;;;;;;;;;30.85;54.53;98330.94;4941494;29;19926;-65
2022/08/03 15:21:59;;;;;;;;;;;;;;;30.89;55.11;98337.19;4942294;29;20318;-62
2022/08/03 15:24:27;;;;;;;;;;;;;;;30.92;53.70;98336.94;4925617;29;19927;-61
2022/08/03 15:26:54;;;;;;;;;;;;;;;30.91;55.16;98329.59;4934637;29;19936;-62
2022/08/03 15:29:22;;;;;;;;;;;;;;;30.96;52.20;98322.22;4934783;29;19927;-62
2022/08/03 15:31:49;;;;;;;;;;;;;;;30.91;52.77;98325.94;4938054;29;19930;-71
2022/08/03 15:34:17;;;;;;;;;;;;;;;30.89;53.21;98329.34;4919625;29;19942;-68
2022/08/03 15:36:44;;;;;;;;;;;;;;;30.93;54.38;98326.19;4932108;29;19931;-64
2022/08/03 15:39:11;;;;;;;;;;;;;;;30.96;53.04;98328.78;4935603;29;19926;-64
2022/08/03 15:41:39;;;;;;;;;;;;;;;30.89;53.21;98322.75;4943728;29;19937;-64
2022/08/03 15:44:06;;;;;;;;;;;;;;;30.84;52.19;98323.56;4939928;29;19996;-64
2022/08/03 15:46:35;;;;;;;;;;;;;;;30.78;52.55;98320.75;4940693;29;19935;-63
2022/08/03 15:49:02;;;;;;;;;;;;;;;30.73;53.22;98320.78;4935110;29;20324;-63
2022/08/03 15:51:30;;;;;;;;;;;;;;;30.74;57.04;98314.44;4939033;29;19934;-64
2022/08/03 15:53:57;;;;;;;;;;;;;;;30.80;55.07;98317.31;4942581;29;20323;-64
2022/08/03 15:56:24;;;;;;;;;;;;;;;30.82;56.35;98318.34;4941908;29;19935;-64
2022/08/03 15:58:52;;;;;;;;;;;;;;;30.80;54.07;98308.66;4938915;29;19934;-64
2022/08/03 16:01:20;;;;;;;;;;;;;;;30.77;56.76;98310.50;4938008;29;20276;-64
2022/08/03 16:03:47;;;;;;;;;;;;;;;30.78;56.07;98305.50;4937947;29;19933;-64
2022/08/03 16:06:14;;;;;;;;;;;;;;;30.76;57.16;98308.16;4941724;29;19937;-64
2022/08/03 16:08:42;;;;;;;;;;;;;;;30.68;56.50;98307.94;4933355;29;19927;-64
2022/08/03 16:11:09;;;;;;;;;;;;;;;30.64;56.20;98298.75;4940743;29;19938;-64
2022/08/03 16:13:36;;;;;;;;;;;;;;;30.58;58.47;98298.03;4940375;29;19926;-64
2022/08/03 16:16:04;;;;;;;;;;;;;;;30.56;55.56;98300.66;4951320;29;19938;-63
2022/08/03 16:18:31;;;;;;;;;;;;;;;30.58;55.44;98300.13;4938866;29;20275;-64
2022/08/03 16:20:59;;;;;;;;;;;;;;;30.58;54.86;98298.03;4939012;29;20496;-64
2022/08/03 16:23:26;;;;;;;;;;;;;;;30.50;55.83;98297.03;4938060;29;19934;-64
2022/08/03 16:25:53;;;;;;;;;;;;;;;30.44;56.76;98297.06;4932614;29;20643;-64
2022/08/03 16:28:21;;;;;;;;;;;;;;;30.43;56.38;98295.50;4951535;29;19931;-64
2022/08/03 16:30:49;;;;;;;;;;;;;;;30.42;54.85;98301.81;4946742;29;19930;-64
2022/08/03 16:33:16;;;;;;;;;;;;;;;30.39;54.60;98292.13;4940210;29;19931;-63
2022/08/03 16:35:44;;;;;;;;;;;;;;;30.36;56.91;98298.94;4938549;29;19931;-64
2022/08/03 16:38:12;;;;;;;;;;;;;;;30.38;55.73;98293.41;4946202;29;19927;-64
2022/08/03 16:40:42;;;;;;;;;;;;;;;30.32;58.15;98295.50;4937404;29;19926;-64
2022/08/03 16:43:10;;;;;;;;;;;;;;;30.30;58.03;98294.47;4939558;29;19958;-64
2022/08/03 16:45:38;;;;;;;;;;;;;;;30.29;56.50;98284.25;4934911;29;19927;-64
2022/08/03 16:48:05;;;;;;;;;;;;;;;30.29;54.95;98293.72;4937645;29;19938;-64
2022/08/03 16:50:33;;;;;;;;;;;;;;;30.27;54.76;98293.47;4946813;29;19930;-64
2022/08/03 16:53:07;;;;;;;;;;;;;;;30.28;55.91;98285.56;4937885;29;19945;-64
2022/08/03 16:55:36;;;;;;;;;;;;;;;30.23;55.84;98289.25;4924715;29;19989;-64
2022/08/03 16:58:04;;;;;;;;;;;;;;;30.17;56.81;98288.50;4943437;29;19938;-64
2022/08/03 17:00:32;;;;;;;;;;;;;;;30.08;57.84;98280.19;4932806;29;19935;-64
2022/08/03 17:03:01;;;;;;;;;;;;;;;30.02;57.71;98274.44;4944579;29;20060;-64
2022/08/03 17:05:29;;;;;;;;;;;;;;;29.98;59.49;98278.91;4939684;29;19941;-64
2022/08/03 17:07:56;;;;;;;;;;;;;;;30.00;56.84;98276.28;4937812;29;20201;-64
2022/08/03 17:10:23;;;;;;;;;;;;;;;29.99;56.96;98283.34;4935009;29;19926;-64
2022/08/03 17:12:50;;;;;;;;;;;;;;;29.95;57.64;98277.88;4929820;29;19950;-64
2022/08/03 17:15:18;;;;;;;;;;;;;;;29.90;59.10;98278.66;4948142;29;19931;-64
2022/08/03 17:17:56;;;;;;;;;;;;;;;29.86;60.26;98283.91;4939011;29;19957;-64
2022/08/03 17:20:23;;;;;;;;;;;;;;;29.83;60.37;98276.34;4943342;29;19934;-64
2022/08/03 17:23:01;;;;;;;;;;;;;;;29.77;59.24;98278.44;4948925;29;19938;-64
2022/08/03 17:25:29;;;;;;;;;;;;;;;29.80;58.18;98286.03;4937142;29;19935;-64
2022/08/03 17:27:57;;;;;;;;;;;;;;;29.72;58.56;98280.00;4935297;29;20224;-64
2022/08/03 17:31:13;;;;;;;;;;;;;;;29.70;59.53;98284.72;4939596;29;20323;-64
2022/08/03 17:33:12;;;;;;;;;;;;;;;29.66;60.15;98292.88;4940408;29;19934;-65
2022/08/03 17:35:40;;;;;;;;;;;;;;;29.63;60.04;98282.38;4935794;29;20334;-66
2022/08/03 17:38:07;;;;;;;;;;;;;;;29.59;60.18;98284.75;4937655;29;19944;-64
2022/08/03 17:40:37;;;;;;;;;;;;;;;29.58;59.39;98286.84;4936416;29;19927;-64